Time;durP1;ratioP1;P1;durP2;ratioP2;P2;SDS_P1;SDS_P2;PMS_P1;PMS_P2;Temp;Humidity;BMP_temperature;BMP_pressure;BME280_temperature;BME280_humidity;BME280_pressure;Samples;Min_cycle;Max_cycle;Signal;HPM_P1;HPM_P2
2021/10/21 00:02:22;;;;;;;6.78;6.05;;;;;;;;;;6244649;23;20027;-57
2021/10/21 00:04:49;;;;;;;8.95;6.78;;;;;;;;;;6246336;22;19996;-57
2021/10/21 00:07:14;;;;;;;11.93;7.60;;;;;;;;;;6246049;22;20009;-57
2021/10/21 00:09:40;;;;;;;16.05;8.38;;;;;;;;;;6246166;22;20050;-57
2021/10/21 00:12:05;;;;;;;14.98;8.75;;;;;;;;;;6246534;23;20008;-57
2021/10/21 00:14:31;;;;;;;17.17;9.45;;;;;;;;;;6245927;22;20363;-57
2021/10/21 00:16:56;;;;;;;13.75;9.18;;;;;;;;;;6245937;23;20079;-57
2021/10/21 00:19:22;;;;;;;14.25;8.75;;;;;;;;;;6246174;22;20006;-57
2021/10/21 00:21:50;;;;;;;15.07;8.40;;;;;;;;;;6244818;23;20008;-57
2021/10/21 00:24:16;;;;;;;16.80;9.45;;;;;;;;;;6246103;22;20278;-57
2021/10/21 00:26:42;;;;;;;15.43;9.63;;;;;;;;;;6245909;23;20037;-57
2021/10/21 00:29:07;;;;;;;23.40;11.70;;;;;;;;;;6245796;23;20042;-57
2021/10/21 00:31:33;;;;;;;26.55;11.55;;;;;;;;;;6244623;23;20036;-57
2021/10/21 00:33:58;;;;;;;23.23;11.45;;;;;;;;;;6244549;23;20011;-57
2021/10/21 00:36:24;;;;;;;21.33;10.60;;;;;;;;;;6245864;22;20043;-57
2021/10/21 00:38:49;;;;;;;21.33;10.77;;;;;;;;;;6246167;23;19996;-57
2021/10/21 00:41:15;;;;;;;19.58;10.27;;;;;;;;;;6245923;23;20011;-57
2021/10/21 00:43:41;;;;;;;21.65;10.15;;;;;;;;;;6245780;23;20007;-57
2021/10/21 00:46:07;;;;;;;19.20;10.38;;;;;;;;;;6247249;23;20087;-57
2021/10/21 00:48:34;;;;;;;17.17;9.40;;;;;;;;;;6247829;22;20054;-57
2021/10/21 00:50:59;;;;;;;17.83;10.82;;;;;;;;;;6247756;22;20429;-57
2021/10/21 00:53:26;;;;;;;20.85;12.45;;;;;;;;;;6246124;23;19992;-57
2021/10/21 00:55:52;;;;;;;18.75;11.15;;;;;;;;;;6247660;23;20000;-57
2021/10/21 00:58:17;;;;;;;15.52;10.93;;;;;;;;;;6247670;23;20072;-57
2021/10/21 01:00:43;;;;;;;15.77;9.93;;;;;;;;;;6247582;23;20008;-57
2021/10/21 01:03:08;;;;;;;10.95;8.48;;;;;;;;;;6247528;22;20420;-57
2021/10/21 01:05:34;;;;;;;11.57;7.90;;;;;;;;;;6247548;23;20062;-57
2021/10/21 01:07:59;;;;;;;10.35;7.03;;;;;;;;;;6247499;23;19992;-57
2021/10/21 01:10:25;;;;;;;13.10;8.95;;;;;;;;;;6247558;22;20000;-57
2021/10/21 01:12:50;;;;;;;15.77;9.77;;;;;;;;;;6247593;23;20166;-57
2021/10/21 01:15:21;;;;;;;10.70;7.53;;;;;;;;;;6247669;23;20011;-57
2021/10/21 01:17:46;;;;;;;;;;;;;;;;;;6248115;22;20011;-57
2021/10/21 01:20:11;;;;;;;13.40;8.68;;;;;;;;;;6247605;22;19900;-57
2021/10/21 01:22:38;;;;;;;12.30;8.63;;;;;;;;;;6247493;22;20011;-57
2021/10/21 01:25:04;;;;;;;17.45;10.23;;;;;;;;;;6247767;22;20000;-57
2021/10/21 01:27:29;;;;;;;13.00;8.85;;;;;;;;;;6247416;22;20058;-57
2021/10/21 01:29:55;;;;;;;9.73;7.05;;;;;;;;;;6246874;23;20107;-56
2021/10/21 01:32:24;;;;;;;7.93;7.07;;;;;;;;;;6246843;23;20035;-57
2021/10/21 01:34:51;;;;;;;9.15;7.03;;;;;;;;;;6247082;22;20019;-56
2021/10/21 01:37:17;;;;;;;8.73;7.00;;;;;;;;;;6247305;23;20440;-57
2021/10/21 01:39:42;;;;;;;9.73;7.13;;;;;;;;;;6247634;23;20046;-57
2021/10/21 01:42:08;;;;;;;8.60;7.22;;;;;;;;;;6247461;23;20083;-57
2021/10/21 01:44:33;;;;;;;7.80;7.00;;;;;;;;;;6247230;22;20050;-57
2021/10/21 01:46:59;;;;;;;9.60;7.10;;;;;;;;;;6247121;23;20015;-57
2021/10/21 01:49:24;;;;;;;9.73;7.30;;;;;;;;;;6247046;22;20003;-57
2021/10/21 01:51:50;;;;;;;8.02;6.68;;;;;;;;;;6246979;23;20079;-57
2021/10/21 01:54:16;;;;;;;9.35;7.20;;;;;;;;;;6247096;22;19996;-57
2021/10/21 01:56:42;;;;;;;7.93;7.18;;;;;;;;;;6246572;22;20008;-57
2021/10/21 01:59:07;;;;;;;9.50;7.25;;;;;;;;;;6247095;23;20049;-57
2021/10/21 02:01:33;;;;;;;10.27;7.15;;;;;;;;;;6247073;23;20091;-57
2021/10/21 02:03:59;;;;;;;8.68;7.03;;;;;;;;;;6247105;23;20324;-57
2021/10/21 02:06:24;;;;;;;12.13;7.13;;;;;;;;;;6246990;22;20066;-57
2021/10/21 02:08:50;;;;;;;10.00;6.82;;;;;;;;;;6247200;22;20051;-57
2021/10/21 02:11:16;;;;;;;9.48;7.03;;;;;;;;;;6246841;22;20004;-57
2021/10/21 02:13:41;;;;;;;10.60;7.28;;;;;;;;;;6246904;23;20416;-56
2021/10/21 02:16:07;;;;;;;8.32;6.80;;;;;;;;;;6246789;23;20007;-56
2021/10/21 02:18:32;;;;;;;8.38;7.13;;;;;;;;;;6247118;22;19996;-56
2021/10/21 02:20:58;;;;;;;9.73;6.95;;;;;;;;;;6246946;23;20333;-57
2021/10/21 02:23:23;;;;;;;8.88;7.20;;;;;;;;;;6247045;22;19996;-56
2021/10/21 02:25:49;;;;;;;7.97;7.07;;;;;;;;;;6245090;23;20004;-57
2021/10/21 02:28:14;;;;;;;8.95;7.05;;;;;;;;;;6246833;23;20075;-56
2021/10/21 02:30:40;;;;;;;9.18;7.70;;;;;;;;;;6246632;22;20008;-56
2021/10/21 02:33:06;;;;;;;9.00;7.60;;;;;;;;;;6246812;22;20008;-56
2021/10/21 02:35:31;;;;;;;12.20;8.25;;;;;;;;;;6246773;22;20015;-56
2021/10/21 02:37:57;;;;;;;9.95;7.60;;;;;;;;;;6246765;23;19993;-56
2021/10/21 02:40:22;;;;;;;8.75;6.97;;;;;;;;;;6246965;22;20007;-56
2021/10/21 02:42:48;;;;;;;10.20;7.75;;;;;;;;;;6246818;23;20000;-56
2021/10/21 02:45:13;;;;;;;11.10;7.65;;;;;;;;;;6246618;22;20054;-56
2021/10/21 02:47:40;;;;;;;10.38;7.15;;;;;;;;;;6245161;23;19996;-56
2021/10/21 02:50:05;;;;;;;8.05;7.13;;;;;;;;;;6246577;22;20356;-56
2021/10/21 02:52:31;;;;;;;8.60;7.68;;;;;;;;;;6246277;23;20038;-56
2021/10/21 02:54:56;;;;;;;10.23;7.47;;;;;;;;;;6246389;22;20115;-56
2021/10/21 02:57:21;;;;;;;11.27;8.40;;;;;;;;;;6246015;22;20078;-57
2021/10/21 02:59:47;;;;;;;11.43;7.70;;;;;;;;;;6246630;23;20000;-57
2021/10/21 03:02:12;;;;;;;13.32;9.60;;;;;;;;;;6246322;23;20004;-57
2021/10/21 03:04:38;;;;;;;12.02;8.90;;;;;;;;;;6246150;22;20054;-57
2021/10/21 03:07:03;;;;;;;16.67;9.63;;;;;;;;;;6246047;22;19996;-57
2021/10/21 03:09:29;;;;;;;9.50;7.70;;;;;;;;;;6246234;22;20421;-59
2021/10/21 03:11:54;;;;;;;12.88;8.43;;;;;;;;;;6246358;22;20000;-59
2021/10/21 03:14:20;;;;;;;10.00;8.07;;;;;;;;;;6246327;22;20092;-59
2021/10/21 03:16:45;;;;;;;10.15;7.28;;;;;;;;;;6246032;22;19996;-60
2021/10/21 03:19:11;;;;;;;11.75;7.72;;;;;;;;;;6246224;23;20061;-59
2021/10/21 03:21:36;;;;;;;10.93;7.20;;;;;;;;;;6246364;22;20000;-59
2021/10/21 03:24:02;;;;;;;17.60;7.43;;;;;;;;;;6246160;22;20062;-59
2021/10/21 03:26:27;;;;;;;12.45;8.57;;;;;;;;;;6246272;22;20000;-58
2021/10/21 03:28:53;;;;;;;12.20;7.68;;;;;;;;;;6245833;22;20012;-59
2021/10/21 03:31:19;;;;;;;15.60;8.73;;;;;;;;;;6246377;23;20074;-58
2021/10/21 03:33:45;;;;;;;10.63;8.00;;;;;;;;;;6245872;23;20000;-58
2021/10/21 03:36:10;;;;;;;12.18;8.80;;;;;;;;;;6246030;22;19992;-58
2021/10/21 03:38:36;;;;;;;13.35;7.97;;;;;;;;;;6246456;23;20032;-58
2021/10/21 03:41:02;;;;;;;18.55;8.68;;;;;;;;;;6246746;22;19999;-58
2021/10/21 03:43:27;;;;;;;12.65;8.32;;;;;;;;;;6246212;23;20113;-58
2021/10/21 03:45:53;;;;;;;12.85;9.07;;;;;;;;;;6246075;22;19996;-58
2021/10/21 03:48:19;;;;;;;38.65;17.77;;;;;;;;;;6246319;22;20004;-58
2021/10/21 03:50:44;;;;;;;24.70;13.52;;;;;;;;;;6246371;22;19992;-59
2021/10/21 03:53:13;;;;;;;17.65;11.50;;;;;;;;;;6246195;22;20448;-59
2021/10/21 03:55:39;;;;;;;15.35;10.00;;;;;;;;;;6246235;22;20003;-59
2021/10/21 03:58:05;;;;;;;12.50;9.18;;;;;;;;;;6244452;23;20097;-59
2021/10/21 04:00:30;;;;;;;13.20;8.65;;;;;;;;;;6245896;22;20000;-59
2021/10/21 04:02:56;;;;;;;13.23;8.38;;;;;;;;;;6246118;23;20475;-59
2021/10/21 04:05:22;;;;;;;10.15;7.45;;;;;;;;;;6246027;23;20011;-59
2021/10/21 04:07:48;;;;;;;12.63;8.68;;;;;;;;;;6245881;22;20474;-57
2021/10/21 04:10:15;;;;;;;12.98;9.27;;;;;;;;;;6246430;22;19992;-56
2021/10/21 04:12:41;;;;;;;8.45;7.20;;;;;;;;;;6246253;22;20385;-57
2021/10/21 04:15:07;;;;;;;10.50;7.35;;;;;;;;;;6246088;22;20012;-57
2021/10/21 04:17:33;;;;;;;10.25;8.02;;;;;;;;;;6245956;23;20312;-58
2021/10/21 04:19:58;;;;;;;14.35;8.90;;;;;;;;;;6246537;22;20034;-57
2021/10/21 04:22:24;;;;;;;47.00;20.15;;;;;;;;;;6248208;22;20008;-58
2021/10/21 04:24:49;;;;;;;112.03;44.20;;;;;;;;;;6247763;22;20027;-58
2021/10/21 04:27:15;;;;;;;50.88;22.98;;;;;;;;;;6247915;22;20011;-58
2021/10/21 04:29:40;;;;;;;32.13;15.70;;;;;;;;;;6247191;23;20012;-57
2021/10/21 04:32:06;;;;;;;32.80;15.40;;;;;;;;;;6247871;22;20004;-56
2021/10/21 04:34:32;;;;;;;17.05;10.38;;;;;;;;;;6248109;22;20011;-56
2021/10/21 04:36:59;;;;;;;22.85;14.95;;;;;;;;;;6248094;23;20039;-56
2021/10/21 04:39:24;;;;;;;19.55;11.98;;;;;;;;;;6248059;22;20429;-56
2021/10/21 04:41:50;;;;;;;196.75;66.40;;;;;;;;;;6247791;23;20015;-55
2021/10/21 04:44:15;;;;;;;192.32;68.60;;;;;;;;;;6247009;22;20355;-56
2021/10/21 04:46:41;;;;;;;44.08;18.73;;;;;;;;;;6247075;23;20024;-56
2021/10/21 04:49:06;;;;;;;43.92;18.20;;;;;;;;;;6248471;22;20016;-56
2021/10/21 04:51:32;;;;;;;15.70;9.45;;;;;;;;;;6247771;23;20023;-56
2021/10/21 04:53:57;;;;;;;62.53;25.13;;;;;;;;;;6247663;23;20421;-56
2021/10/21 04:56:23;;;;;;;51.53;20.58;;;;;;;;;;6247497;23;20008;-56
2021/10/21 04:58:48;;;;;;;57.17;23.60;;;;;;;;;;6247798;22;19996;-56
2021/10/21 05:01:14;;;;;;;19.80;11.27;;;;;;;;;;6245743;23;20012;-56
2021/10/21 05:03:39;;;;;;;11.43;7.90;;;;;;;;;;6247290;22;20051;-56
2021/10/21 05:06:05;;;;;;;33.00;15.98;;;;;;;;;;6247176;22;20012;-56
2021/10/21 05:08:30;;;;;;;58.72;24.33;;;;;;;;;;6247052;23;20076;-56
2021/10/21 05:10:56;;;;;;;259.60;99.68;;;;;;;;;;6247050;23;20004;-56
2021/10/21 05:13:21;;;;;;;79.18;34.50;;;;;;;;;;6247157;22;20417;-56
2021/10/21 05:15:47;;;;;;;31.58;18.20;;;;;;;;;;6247003;23;20058;-56
2021/10/21 05:18:12;;;;;;;50.58;26.90;;;;;;;;;;6247139;22;20028;-56
2021/10/21 05:20:38;;;;;;;38.78;19.88;;;;;;;;;;6247070;23;20417;-56
2021/10/21 05:23:04;;;;;;;76.80;27.30;;;;;;;;;;6247081;22;20073;-56
2021/10/21 05:25:30;;;;;;;54.85;25.85;;;;;;;;;;6246976;23;20440;-56
2021/10/21 05:27:55;;;;;;;37.72;21.30;;;;;;;;;;6247017;22;20375;-56
2021/10/21 05:30:22;;;;;;;31.38;21.73;;;;;;;;;;6245002;23;20384;-56
2021/10/21 05:32:47;;;;;;;27.27;21.08;;;;;;;;;;6246907;23;20437;-56
2021/10/21 05:35:13;;;;;;;30.25;16.90;;;;;;;;;;6246912;22;19999;-56
2021/10/21 05:37:38;;;;;;;82.43;34.55;;;;;;;;;;6246854;23;20008;-56
2021/10/21 05:40:05;;;;;;;18.13;12.05;;;;;;;;;;6245432;23;20413;-56
2021/10/21 05:42:30;;;;;;;16.40;10.13;;;;;;;;;;6246980;22;20004;-56
2021/10/21 05:44:56;;;;;;;33.55;20.10;;;;;;;;;;6246824;23;20416;-56
2021/10/21 05:47:21;;;;;;;287.40;85.72;;;;;;;;;;6246769;23;20012;-56
2021/10/21 05:49:47;;;;;;;175.20;51.63;;;;;;;;;;6246845;23;19996;-56
2021/10/21 05:52:13;;;;;;;93.10;46.13;;;;;;;;;;6246811;23;20065;-56
2021/10/21 05:54:38;;;;;;;187.18;52.50;;;;;;;;;;6246782;22;20425;-55
2021/10/21 05:57:04;;;;;;;257.92;77.70;;;;;;;;;;6246830;22;20008;-55
2021/10/21 05:59:29;;;;;;;61.53;27.33;;;;;;;;;;6245103;23;20031;-55
2021/10/21 06:01:55;;;;;;;27.45;14.10;;;;;;;;;;6246727;23;20436;-56
2021/10/21 06:04:20;;;;;;;49.63;18.27;;;;;;;;;;6246592;23;20004;-55
2021/10/21 06:06:46;;;;;;;23.02;13.55;;;;;;;;;;6246520;22;20134;-55
2021/10/21 06:09:11;;;;;;;35.65;15.13;;;;;;;;;;6246741;22;19996;-55
2021/10/21 06:11:37;;;;;;;66.30;22.92;;;;;;;;;;6246497;23;20000;-56
2021/10/21 06:14:05;;;;;;;28.30;15.38;;;;;;;;;;6246576;22;20003;-56
2021/10/21 06:16:31;;;;;;;81.45;32.15;;;;;;;;;;6246483;23;20004;-56
2021/10/21 06:18:57;;;;;;;62.38;31.00;;;;;;;;;;6246580;22;20006;-56
2021/10/21 06:21:23;;;;;;;40.25;21.92;;;;;;;;;;6246442;23;20077;-56
2021/10/21 06:23:50;;;;;;;58.53;23.02;;;;;;;;;;6246443;22;20455;-56
2021/10/21 06:26:17;;;;;;;66.25;30.00;;;;;;;;;;6246473;23;20008;-55
2021/10/21 06:28:48;;;;;;;38.30;19.20;;;;;;;;;;6247185;23;20486;-55
2021/10/21 06:31:14;;;;;;;19.63;11.45;;;;;;;;;;6244828;23;20032;-56
2021/10/21 06:33:40;;;;;;;22.25;11.43;;;;;;;;;;6245780;22;20413;-56
2021/10/21 06:36:06;;;;;;;20.50;12.00;;;;;;;;;;6246632;22;20019;-55
2021/10/21 06:38:32;;;;;;;30.08;14.68;;;;;;;;;;6246512;23;20000;-56
2021/10/21 06:40:58;;;;;;;25.42;12.48;;;;;;;;;;6246373;22;20000;-56
2021/10/21 06:43:23;;;;;;;14.18;9.05;;;;;;;;;;6246204;22;20054;-56
2021/10/21 06:45:49;;;;;;;12.77;9.35;;;;;;;;;;6246368;23;20000;-58
2021/10/21 06:48:14;;;;;;;10.43;8.25;;;;;;;;;;6246197;22;20078;-58
2021/10/21 06:50:40;;;;;;;8.60;7.22;;;;;;;;;;6246179;23;20007;-58
2021/10/21 06:53:05;;;;;;;7.60;6.80;;;;;;;;;;6246115;23;19992;-58
2021/10/21 06:55:30;;;;;;;10.05;7.35;;;;;;;;;;6246106;23;20053;-58
2021/10/21 06:57:57;;;;;;;10.95;7.45;;;;;;;;;;6246312;22;20000;-58
2021/10/21 07:00:23;;;;;;;10.40;7.28;;;;;;;;;;6246313;22;20134;-58
2021/10/21 07:02:49;;;;;;;8.73;6.55;;;;;;;;;;6246128;22;20027;-58
2021/10/21 07:05:15;;;;;;;10.52;7.55;;;;;;;;;;6246042;22;20004;-58
2021/10/21 07:07:41;;;;;;;9.63;6.90;;;;;;;;;;6245995;22;20080;-58
2021/10/21 07:10:08;;;;;;;10.43;7.30;;;;;;;;;;6246062;22;20006;-58
2021/10/21 07:12:34;;;;;;;13.77;7.10;;;;;;;;;;6246084;22;20000;-58
2021/10/21 07:15:00;;;;;;;8.98;7.28;;;;;;;;;;6246181;22;20354;-58
2021/10/21 07:17:26;;;;;;;11.02;6.70;;;;;;;;;;6245739;22;20000;-58
2021/10/21 07:19:53;;;;;;;11.82;6.95;;;;;;;;;;6246015;23;20036;-58
2021/10/21 07:22:19;;;;;;;10.35;6.90;;;;;;;;;;6245938;22;20433;-56
2021/10/21 07:24:45;;;;;;;11.90;7.13;;;;;;;;;;6245919;23;20007;-56
2021/10/21 07:27:10;;;;;;;10.63;7.43;;;;;;;;;;6245666;22;20039;-56
2021/10/21 07:29:36;;;;;;;10.05;7.63;;;;;;;;;;6245604;22;20095;-57
2021/10/21 07:32:02;;;;;;;8.85;7.28;;;;;;;;;;6245851;23;20134;-56
2021/10/21 07:34:27;;;;;;;7.70;6.90;;;;;;;;;;6246020;22;20003;-56
2021/10/21 07:36:53;;;;;;;9.02;7.22;;;;;;;;;;6245535;23;20062;-58
2021/10/21 07:39:21;;;;;;;7.88;6.45;;;;;;;;;;6246024;22;20479;-58
2021/10/21 07:41:48;;;;;;;9.52;6.90;;;;;;;;;;6246233;22;20011;-59
2021/10/21 07:44:13;;;;;;;10.25;7.25;;;;;;;;;;6246322;22;20031;-58
2021/10/21 07:46:38;;;;;;;7.90;6.90;;;;;;;;;;6246083;23;20012;-58
2021/10/21 07:49:04;;;;;;;13.23;7.30;;;;;;;;;;6246156;23;20321;-58
2021/10/21 07:51:31;;;;;;;9.63;6.80;;;;;;;;;;6246308;23;20007;-58
2021/10/21 07:53:57;;;;;;;8.07;7.18;;;;;;;;;;6246082;22;19997;-58
2021/10/21 07:56:23;;;;;;;8.10;6.88;;;;;;;;;;6248010;23;20011;-60
2021/10/21 07:58:48;;;;;;;11.23;6.82;;;;;;;;;;6248164;23;20361;-63
2021/10/21 08:01:15;;;;;;;9.38;6.55;;;;;;;;;;6248371;23;20004;-65
2021/10/21 08:03:40;;;;;;;7.70;6.45;;;;;;;;;;6248242;22;19992;-65
2021/10/21 08:06:06;;;;;;;8.45;6.53;;;;;;;;;;6246315;23;20011;-64
2021/10/21 08:08:32;;;;;;;10.70;7.65;;;;;;;;;;6245791;23;20008;-65
2021/10/21 08:10:57;;;;;;;10.55;7.47;;;;;;;;;;6247812;23;20050;-65
2021/10/21 08:13:23;;;;;;;8.82;7.20;;;;;;;;;;6246982;22;20086;-65
2021/10/21 08:15:50;;;;;;;9.10;7.22;;;;;;;;;;6246700;23;20010;-65
2021/10/21 08:18:15;;;;;;;9.32;7.13;;;;;;;;;;6246751;22;19999;-65
2021/10/21 08:20:42;;;;;;;6.43;5.75;;;;;;;;;;6246851;22;20004;-65
2021/10/21 08:23:07;;;;;;;8.68;6.22;;;;;;;;;;6247622;22;20031;-65
2021/10/21 08:25:32;;;;;;;5.05;3.92;;;;;;;;;;6245925;23;20012;-65
2021/10/21 08:27:58;;;;;;;9.40;8.15;;;;;;;;;;6245962;23;19996;-62
2021/10/21 08:30:25;;;;;;;10.48;7.65;;;;;;;;;;6247112;23;20004;-62
2021/10/21 08:32:56;;;;;;;9.57;7.57;;;;;;;;;;6247571;23;20004;-62
2021/10/21 08:35:24;;;;;;;9.82;7.78;;;;;;;;;;6247722;22;20039;-64
2021/10/21 08:37:49;;;;;;;9.85;8.40;;;;;;;;;;6246262;23;20004;-64
2021/10/21 08:40:16;;;;;;;10.52;7.50;;;;;;;;;;6247497;22;20007;-64
2021/10/21 08:42:42;;;;;;;8.70;5.68;;;;;;;;;;6247654;22;20003;-65
2021/10/21 08:45:08;;;;;;;9.70;7.50;;;;;;;;;;6247574;22;20442;-65
2021/10/21 08:47:33;;;;;;;10.10;8.32;;;;;;;;;;6247327;23;20003;-64
2021/10/21 08:49:59;;;;;;;8.75;6.53;;;;;;;;;;6247357;22;20004;-64
2021/10/21 08:52:24;;;;;;;10.63;7.13;;;;;;;;;;6247458;23;20317;-65
2021/10/21 08:54:50;;;;;;;11.48;7.50;;;;;;;;;;6247463;23;20004;-64
2021/10/21 08:57:15;;;;;;;8.43;7.55;;;;;;;;;;6247393;22;20356;-64
2021/10/21 08:59:41;;;;;;;10.27;7.35;;;;;;;;;;6247281;23;20008;-65
2021/10/21 09:02:16;;;;;;;8.70;6.85;;;;;;;;;;6247191;23;20000;-64
2021/10/21 09:10:09;;;;;;;8.00;5.78;;;;;;;;;;6247461;23;20441;-64
2021/10/21 09:12:34;;;;;;;;;;;;;;;;;;6247892;22;20083;-64
2021/10/21 09:15:07;;;;;;;11.85;7.97;;;;;;;;;;6246726;23;19939;-64
2021/10/21 09:17:34;;;;;;;11.88;7.25;;;;;;;;;;6247073;22;20039;-64
2021/10/21 09:20:18;;;;;;;9.18;7.68;;;;;;;;;;6247008;23;20030;-64
2021/10/21 09:22:50;;;;;;;10.85;7.90;;;;;;;;;;6247194;23;20031;-64
2021/10/21 09:25:20;;;;;;;8.48;5.68;;;;;;;;;;6247037;23;20115;-64
2021/10/21 09:27:46;;;;;;;9.63;7.65;;;;;;;;;;6247117;23;20332;-64
2021/10/21 09:30:11;;;;;;;8.82;6.95;;;;;;;;;;6246597;22;20084;-64
2021/10/21 09:32:39;;;;;;;8.52;7.65;;;;;;;;;;6247339;23;20416;-64
2021/10/21 09:35:05;;;;;;;9.52;8.52;;;;;;;;;;6246998;22;20000;-65
2021/10/21 09:37:31;;;;;;;8.77;6.68;;;;;;;;;;6247057;22;20004;-64
2021/10/21 09:39:58;;;;;;;9.50;7.60;;;;;;;;;;6247018;22;20007;-64
2021/10/21 09:42:31;;;;;;;9.85;6.05;;;;;;;;;;6246809;23;20004;-65
2021/10/21 09:45:15;;;;;;;12.30;7.80;;;;;;;;;;6246998;22;20036;-65
2021/10/21 09:47:45;;;;;;;6.20;4.95;;;;;;;;;;6245382;23;20008;-65
2021/10/21 09:50:31;;;;;;;8.02;6.40;;;;;;;;;;6246761;23;19996;-64
2021/10/21 09:53:22;;;;;;;11.15;8.45;;;;;;;;;;6247050;22;20083;-64
2021/10/21 09:55:50;;;;;;;5.95;5.45;;;;;;;;;;6246704;23;20062;-65
2021/10/21 09:58:19;;;;;;;12.25;7.53;;;;;;;;;;6246825;23;20033;-65
2021/10/21 10:00:45;;;;;;;2.30;2.17;;;;;;;;;;6246805;23;20008;-65
2021/10/21 10:03:11;;;;;;;3.17;2.65;;;;;;;;;;6246772;23;20007;-65
2021/10/21 10:05:38;;;;;;;10.77;7.68;;;;;;;;;;6246617;22;20008;-65
2021/10/21 10:08:08;;;;;;;4.30;3.25;;;;;;;;;;6246053;23;20007;-65
2021/10/21 10:10:34;;;;;;;11.10;8.95;;;;;;;;;;6246651;23;20004;-65
2021/10/21 10:12:59;;;;;;;6.90;5.95;;;;;;;;;;6246658;22;19998;-65
2021/10/21 10:15:25;;;;;;;12.18;7.97;;;;;;;;;;6246475;23;20083;-65
2021/10/21 10:17:50;;;;;;;13.90;8.57;;;;;;;;;;6246032;23;20003;-65
2021/10/21 10:20:23;;;;;;;12.68;8.20;;;;;;;;;;6246457;23;20428;-65
2021/10/21 10:22:48;;;;;;;10.38;8.55;;;;;;;;;;6246503;23;20014;-65
2021/10/21 10:25:18;;;;;;;12.48;8.98;;;;;;;;;;6244804;23;20391;-65
2021/10/21 10:28:01;;;;;;;4.63;4.13;;;;;;;;;;6244899;23;20099;-65
2021/10/21 10:30:42;;;;;;;3.63;3.33;;;;;;;;;;6246103;23;20012;-65
2021/10/21 10:33:07;;;;;;;14.55;8.98;;;;;;;;;;6246454;23;20011;-65
2021/10/21 10:35:34;;;;;;;3.70;3.15;;;;;;;;;;6246466;22;19996;-65
2021/10/21 10:38:01;;;;;;;10.07;7.43;;;;;;;;;;6246347;22;20349;-64
2021/10/21 10:40:46;;;;;;;10.57;6.00;;;;;;;;;;6246291;22;20004;-62
2021/10/21 10:43:16;;;;;;;9.30;7.70;;;;;;;;;;6246175;23;20012;-62
2021/10/21 10:45:42;;;;;;;10.80;7.95;;;;;;;;;;6246362;22;20347;-62
2021/10/21 10:48:07;;;;;;;9.75;5.50;;;;;;;;;;6244820;23;19996;-62
2021/10/21 10:50:33;;;;;;;8.88;7.22;;;;;;;;;;6246225;23;20015;-62
2021/10/21 10:52:59;;;;;;;5.50;4.30;;;;;;;;;;6246039;23;20019;-64
2021/10/21 10:55:38;;;;;;;6.43;5.38;;;;;;;;;;6246128;23;20000;-65
2021/10/21 10:58:04;;;;;;;11.38;7.93;;;;;;;;;;6246234;22;20004;-65
2021/10/21 11:00:33;;;;;;;3.88;3.35;;;;;;;;;;6244363;23;20000;-64
2021/10/21 11:02:59;;;;;;;9.88;6.40;;;;;;;;;;6246590;23;20436;-64
2021/10/21 11:05:43;;;;;;;10.95;6.45;;;;;;;;;;6244754;23;20015;-65
2021/10/21 11:08:09;;;;;;;3.88;3.53;;;;;;;;;;6246136;22;20015;-65
2021/10/21 11:10:35;;;;;;;7.20;4.30;;;;;;;;;;6246195;22;19997;-65
2021/10/21 11:13:16;;;;;;;11.68;7.43;;;;;;;;;;6246022;23;20042;-65
2021/10/21 11:15:46;;;;;;;10.15;6.72;;;;;;;;;;6246406;22;20340;-65
2021/10/21 11:18:20;;;;;;;9.98;6.13;;;;;;;;;;6244697;23;20075;-55
2021/10/21 11:20:46;;;;;;;7.22;5.80;;;;;;;;;;6246042;23;20008;-64
2021/10/21 11:23:26;;;;;;;16.55;7.78;;;;;;;;;;6246259;22;20004;-64
2021/10/21 11:25:55;;;;;;;;;;;;;;;;;;6246755;22;20012;-64
2021/10/21 11:28:30;;;;;;;5.47;3.85;;;;;;;;;;6245909;23;19931;-64
2021/10/21 11:30:57;;;;;;;19.17;6.25;;;;;;;;;;6245437;23;20008;-65
2021/10/21 11:33:23;;;;;;;13.38;6.70;;;;;;;;;;6246031;22;20008;-65
2021/10/21 11:35:51;;;;;;;7.28;5.07;;;;;;;;;;6246212;22;20027;-65
2021/10/21 11:38:17;;;;;;;3.20;2.58;;;;;;;;;;6244396;23;20355;-65
2021/10/21 11:40:44;;;;;;;13.65;5.50;;;;;;;;;;6245893;23;20004;-65
2021/10/21 11:43:18;;;;;;;23.48;5.45;;;;;;;;;;6245941;22;20000;-65
2021/10/21 11:45:43;;;;;;;13.95;5.97;;;;;;;;;;6245846;23;20012;-65
2021/10/21 11:48:13;;;;;;;6.50;3.67;;;;;;;;;;6245895;22;20036;-65
2021/10/21 11:50:39;;;;;;;6.00;2.95;;;;;;;;;;6246128;22;20000;-65
2021/10/21 11:53:07;;;;;;;6.68;3.65;;;;;;;;;;6245817;22;20002;-65
2021/10/21 11:55:33;;;;;;;16.75;4.70;;;;;;;;;;6246274;22;20409;-65
2021/10/21 11:58:08;;;;;;;13.80;4.80;;;;;;;;;;6246572;22;20304;-65
2021/10/21 12:00:33;;;;;;;13.40;4.55;;;;;;;;;;6246220;22;20012;-65
2021/10/21 12:03:00;;;;;;;11.65;4.28;;;;;;;;;;6245768;23;20402;-65
2021/10/21 12:05:30;;;;;;;6.03;3.95;;;;;;;;;;6245771;23;20011;-65
2021/10/21 12:07:57;;;;;;;6.72;3.72;;;;;;;;;;6245812;23;20400;-65
2021/10/21 12:10:25;;;;;;;13.65;3.95;;;;;;;;;;6245809;22;20340;-65
2021/10/21 12:12:51;;;;;;;8.88;3.00;;;;;;;;;;6245770;22;20429;-65
2021/10/21 12:15:19;;;;;;;23.13;5.18;;;;;;;;;;6245776;22;20003;-65
2021/10/21 12:17:47;;;;;;;10.55;4.28;;;;;;;;;;6245616;22;20031;-65
2021/10/21 12:20:13;;;;;;;8.20;4.07;;;;;;;;;;6245643;22;20066;-64
2021/10/21 12:22:38;;;;;;;5.85;3.65;;;;;;;;;;6245728;22;20425;-64
2021/10/21 12:25:06;;;;;;;11.30;4.18;;;;;;;;;;6245800;23;20000;-65
2021/10/21 12:27:32;;;;;;;7.68;3.72;;;;;;;;;;6245642;23;20004;-65
2021/10/21 12:30:05;;;;;;;7.28;3.72;;;;;;;;;;6245383;22;20003;-65
2021/10/21 12:32:31;;;;;;;5.82;4.13;;;;;;;;;;6245826;22;20008;-65
2021/10/21 12:35:07;;;;;;;6.78;2.20;;;;;;;;;;6245589;22;20004;-65
2021/10/21 12:37:39;;;;;;;6.38;3.60;;;;;;;;;;6245564;23;20070;-65
2021/10/21 12:40:10;;;;;;;6.43;3.40;;;;;;;;;;6245511;23;20035;-65
2021/10/21 12:42:36;;;;;;;4.55;3.80;;;;;;;;;;6247329;23;20008;-65
2021/10/21 12:45:01;;;;;;;3.50;3.17;;;;;;;;;;6247608;22;20379;-65
2021/10/21 12:47:31;;;;;;;5.15;3.45;;;;;;;;;;6247292;23;20027;-65
2021/10/21 12:49:59;;;;;;;6.90;4.30;;;;;;;;;;6247497;23;20030;-65
2021/10/21 12:52:26;;;;;;;5.28;3.63;;;;;;;;;;6247155;22;20000;-65
2021/10/21 12:55:10;;;;;;;3.67;3.38;;;;;;;;;;6247512;22;20000;-65
2021/10/21 12:57:47;;;;;;;4.72;4.32;;;;;;;;;;6247216;23;20091;-63
2021/10/21 13:00:13;;;;;;;3.20;2.90;;;;;;;;;;6247371;22;20019;-63
2021/10/21 13:02:39;;;;;;;4.28;3.63;;;;;;;;;;6247345;22;20333;-66
2021/10/21 13:05:05;;;;;;;4.15;3.85;;;;;;;;;;6247375;22;20015;-66
2021/10/21 13:07:30;;;;;;;3.80;3.20;;;;;;;;;;6247346;22;20003;-66
2021/10/21 13:09:56;;;;;;;4.38;3.05;;;;;;;;;;6247416;22;20034;-66
2021/10/21 13:12:22;;;;;;;2.75;1.88;;;;;;;;;;6245491;22;20075;-66
2021/10/21 13:14:49;;;;;;;3.38;3.08;;;;;;;;;;6240973;22;20012;-61
2021/10/21 13:17:15;;;;;;;2.70;2.53;;;;;;;;;;6237498;22;20313;-66
2021/10/21 13:19:41;;;;;;;2.25;1.27;;;;;;;;;;6241406;23;20015;-58
2021/10/21 13:22:06;;;;;;;1.85;1.75;;;;;;;;;;6242606;22;20000;-58
2021/10/21 13:24:36;;;;;;;1.80;1.70;;;;;;;;;;6244512;23;20012;-58
2021/10/21 13:27:03;;;;;;;2.60;2.15;;;;;;;;;;6246381;22;20008;-58
2021/10/21 13:29:29;;;;;;;4.35;2.92;;;;;;;;;;6247073;22;20405;-58
2021/10/21 13:31:55;;;;;;;1.83;1.70;;;;;;;;;;6246700;23;20019;-58
2021/10/21 13:34:21;;;;;;;3.92;2.58;;;;;;;;;;6245456;22;20031;-58
2021/10/21 13:36:46;;;;;;;6.13;2.20;;;;;;;;;;6247093;23;20041;-58
2021/10/21 13:39:12;;;;;;;3.22;1.63;;;;;;;;;;6247033;23;20007;-58
2021/10/21 13:41:38;;;;;;;1.55;1.42;;;;;;;;;;6246916;22;20031;-60
2021/10/21 13:44:04;;;;;;;2.97;1.85;;;;;;;;;;6246958;22;20082;-60
2021/10/21 13:46:29;;;;;;;4.28;2.50;;;;;;;;;;6246235;23;20016;-61
2021/10/21 13:48:55;;;;;;;4.20;2.53;;;;;;;;;;6246958;22;20371;-60
2021/10/21 13:51:20;;;;;;;5.70;2.55;;;;;;;;;;6246630;23;20007;-60
2021/10/21 13:53:46;;;;;;;6.10;2.50;;;;;;;;;;6247054;23;19992;-60
2021/10/21 13:56:14;;;;;;;3.55;1.45;;;;;;;;;;6246956;22;20314;-60
2021/10/21 13:58:40;;;;;;;4.85;1.60;;;;;;;;;;6246759;23;20093;-60
2021/10/21 14:01:05;;;;;;;2.50;1.77;;;;;;;;;;6246624;23;20429;-60
2021/10/21 14:03:31;;;;;;;1.95;1.77;;;;;;;;;;6246536;23;19996;-60
2021/10/21 14:05:57;;;;;;;1.42;1.30;;;;;;;;;;6246657;22;20015;-60
2021/10/21 14:08:22;;;;;;;2.40;1.80;;;;;;;;;;6246596;22;20079;-60
2021/10/21 14:10:48;;;;;;;1.70;1.50;;;;;;;;;;6246640;22;20000;-61
2021/10/21 14:13:13;;;;;;;5.90;2.80;;;;;;;;;;6246548;22;19992;-60
2021/10/21 14:15:40;;;;;;;2.92;2.17;;;;;;;;;;6246501;23;20000;-60
2021/10/21 14:18:05;;;;;;;2.72;2.42;;;;;;;;;;6246365;22;20035;-60
2021/10/21 14:20:31;;;;;;;2.17;1.10;;;;;;;;;;6246678;22;20310;-61
2021/10/21 14:22:57;;;;;;;1.92;1.83;;;;;;;;;;6246683;22;20007;-60
2021/10/21 14:25:23;;;;;;;1.98;1.67;;;;;;;;;;6246420;23;20008;-60
2021/10/21 14:27:49;;;;;;;3.22;1.90;;;;;;;;;;6246451;22;20032;-61
2021/10/21 14:30:14;;;;;;;2.50;1.67;;;;;;;;;;6245948;23;20007;-61
2021/10/21 14:32:40;;;;;;;4.10;2.45;;;;;;;;;;6246508;23;20008;-60
2021/10/21 14:35:07;;;;;;;4.03;1.58;;;;;;;;;;6246368;22;19996;-60
2021/10/21 14:37:38;;;;;;;8.65;2.03;;;;;;;;;;6246496;22;20460;-60